Allwood, New Jersey
Current Conditions -  °F | °C
As of 10:51 AM on Sunday 25 Jan 2015 (Local Time) from KTEB Reporting Station
Clear Clear  
Wind Chill: 34°   Ceiling: Unl
Heat Index: 40°   Visibility: 10mi
Dew Point: 18°   Wind: 9mph
Humidity: 41%   Direction: 300°WNW
Pressure: 29.74"   Gusts: 20mph
Location:  40.8469°N, 74.1593°W
Report Text: KTEB 251551Z 30008G17KT 10SM CLR 04/M08 A2974 RMK AO2 SLP069 T00441078 $
Loading
Personal Weather Stations






























Interactive Weather Map New forecast layout! Learn more

10-Day Weather Forecast

Advertisements
Track Severe Weather on mobile